Time;durP1;ratioP1;P1;durP2;ratioP2;P2;SDS_P1;SDS_P2;PMS_P1;PMS_P2;Temp;Humidity;BMP_temperature;BMP_pressure;BME280_temperature;BME280_humidity;BME280_pressure;Samples;Min_cycle;Max_cycle;Signal;HPM_P1;HPM_P2
2022/04/21 00:00:20;;;;;;;11.20;9.60;;;;;;;9.84;86.87;101468.22;10373968;28;20034;-72
2022/04/21 00:05:21;;;;;;;13.10;7.53;;;;;;;9.78;86.95;101477.06;10381547;28;20030;-72
2022/04/21 00:10:22;;;;;;;10.00;8.57;;;;;;;9.71;86.84;101468.81;10365457;28;20038;-73
2022/04/21 00:15:22;;;;;;;10.60;9.52;;;;;;;9.70;87.20;101466.28;10381612;28;20029;-73
2022/04/21 00:20:22;;;;;;;16.83;10.18;;;;;;;9.65;86.44;101452.47;10383107;28;20084;-73
2022/04/21 00:25:23;;;;;;;8.82;7.63;;;;;;;9.54;87.70;101449.16;10381503;28;20484;-73
2022/04/21 00:30:23;;;;;;;11.93;8.00;;;;;;;9.49;87.32;101456.94;10379927;28;20045;-72
2022/04/21 00:35:24;;;;;;;14.70;9.48;;;;;;;9.54;86.55;101457.25;10362974;28;20137;-73
2022/04/21 00:40:29;;;;;;;11.85;9.65;;;;;;;9.44;87.55;101462.00;10379642;28;20049;-73
2022/04/21 00:45:29;;;;;;;11.98;8.27;;;;;;;9.42;86.85;101457.81;10363959;28;20034;-72
2022/04/21 00:50:31;;;;;;;9.02;7.97;;;;;;;9.41;86.72;101456.13;10381516;28;20450;-72
2022/04/21 00:55:31;;;;;;;11.85;10.55;;;;;;;9.32;87.29;101447.22;10379609;28;20038;-73
2022/04/21 01:00:32;;;;;;;11.15;9.23;;;;;;;9.21;87.92;101461.13;10363117;28;20536;-73
2022/04/21 01:05:33;;;;;;;12.02;9.50;;;;;;;9.15;87.73;101451.84;10379166;28;20032;-72
2022/04/21 01:10:34;;;;;;;13.38;9.07;;;;;;;9.06;87.98;101448.34;10380090;28;20026;-73
2022/04/21 01:15:36;;;;;;;13.68;8.75;;;;;;;9.05;88.17;101456.59;10378881;28;20030;-73
2022/04/21 01:20:36;;;;;;;18.35;8.52;;;;;;;8.98;87.90;101452.91;10362058;28;20481;-73
2022/04/21 01:25:38;;;;;;;7.75;6.97;;;;;;;8.89;89.10;101445.84;10379752;28;20040;-73
2022/04/21 01:30:39;;;;;;;10.35;8.52;;;;;;;8.85;88.72;101439.97;10379567;28;20139;-73
2022/04/21 01:35:39;;;;;;;9.90;8.50;;;;;;;8.77;89.28;101443.50;10363720;28;20462;-72
2022/04/21 01:45:59;;;;;;;11.88;8.45;;;;;;;8.70;87.90;101445.22;10378911;28;20136;-73
2022/04/21 01:51:00;;;;;;;11.85;8.82;;;;;;;8.63;88.67;101440.69;10378539;28;20030;-72
2022/04/21 01:56:00;;;;;;;12.10;9.25;;;;;;;8.61;87.75;101433.63;10378263;28;20397;-72
2022/04/21 02:01:01;;;;;;;10.48;8.80;;;;;;;8.53;88.90;101436.31;10379308;28;20121;-73
2022/04/21 02:06:01;;;;;;;12.88;8.85;;;;;;;8.49;88.89;101429.59;10378444;28;20133;-72
2022/04/21 02:11:01;;;;;;;8.90;8.00;;;;;;;8.49;88.71;101434.13;10377754;28;20116;-72
2022/04/21 02:16:02;;;;;;;14.55;9.45;;;;;;;8.45;88.76;101436.31;10376406;28;20490;-72
2022/04/21 02:21:02;;;;;;;9.57;7.68;;;;;;;8.38;88.89;101424.50;10379735;28;20037;-72
2022/04/21 02:26:03;;;;;;;15.18;7.70;;;;;;;8.35;89.44;101419.44;10377549;28;20458;-73
2022/04/21 02:31:03;;;;;;;12.63;9.70;;;;;;;8.35;89.55;101427.53;10377726;28;20042;-73
2022/04/21 02:36:04;;;;;;;8.48;7.70;;;;;;;8.36;88.52;101429.22;10377233;28;20057;-72
2022/04/21 02:41:04;;;;;;;10.55;9.15;;;;;;;8.31;89.31;101427.03;10376732;28;20042;-72
2022/04/21 02:46:04;;;;;;;9.63;7.07;;;;;;;8.27;89.37;101430.25;10343949;28;20040;-73
2022/04/21 02:51:05;;;;;;;11.57;8.73;;;;;;;8.26;88.82;101415.88;10359120;28;20041;-72
2022/04/21 03:01:24;;;;;;;9.77;8.45;;;;;;;8.18;89.24;101415.06;10375568;28;20041;-72
2022/04/21 03:06:24;;;;;;;11.63;8.65;;;;;;;8.14;89.44;101430.75;10376275;28;20136;-72
2022/04/21 03:11:25;;;;;;;13.68;9.13;;;;;;;8.07;89.14;101419.78;10375750;28;20413;-73
2022/04/21 03:16:25;;;;;;;15.30;9.35;;;;;;;8.08;88.43;101429.56;10375582;28;20116;-73
2022/04/21 03:26:46;;;;;;;10.73;8.43;;;;;;;7.94;90.86;101422.13;10377391;28;20460;-72
2022/04/21 03:31:47;;;;;;;9.38;7.60;;;;;;;7.93;89.80;101423.97;10375288;28;20029;-73
2022/04/21 03:36:48;;;;;;;12.25;8.75;;;;;;;7.90;89.76;101415.38;10375187;28;20046;-72
2022/04/21 03:41:53;;;;;;;12.70;9.25;;;;;;;7.96;85.36;101422.81;10373453;28;20105;-72
2022/04/21 03:46:57;;;;;;;12.60;9.35;;;;;;;7.87;84.37;101421.94;10374617;28;20072;-72
2022/04/21 03:51:58;;;;;;;13.65;9.40;;;;;;;7.78;83.82;101420.25;10375082;28;20382;-72
2022/04/21 03:56:58;;;;;;;10.23;9.13;;;;;;;7.69;83.18;101419.41;10375829;28;20121;-73
2022/04/21 04:02:05;;;;;;;14.25;10.88;;;;;;;7.60;82.93;101424.97;10359452;28;20053;-73
2022/04/21 04:12:32;;;;;;;10.10;9.20;;;;;;;7.54;85.01;101421.06;10359052;28;20398;-72
2022/04/21 04:17:32;;;;;;;14.85;8.40;;;;;;;7.49;84.61;101426.09;10374685;28;20117;-72
2022/04/21 04:22:42;;;;;;;13.82;9.50;;;;;;;7.46;84.33;101423.72;10374689;28;20529;-72
2022/04/21 04:27:42;;;;;;;13.57;9.95;;;;;;;7.42;86.63;101417.00;10375792;28;20080;-72
2022/04/21 04:32:43;;;;;;;10.93;9.60;;;;;;;7.35;91.19;101430.28;10373778;28;20080;-72
2022/04/21 04:37:43;;;;;;;17.30;11.05;;;;;;;7.43;89.95;101426.75;10373658;28;20058;-74
2022/04/21 04:42:43;;;;;;;13.20;9.15;;;;;;;7.43;86.29;101433.00;10374782;28;20038;-73
2022/04/21 04:47:44;;;;;;;11.45;9.88;;;;;;;7.40;85.06;101432.47;10373178;28;20038;-73
2022/04/21 04:52:44;;;;;;;20.95;9.90;;;;;;;7.43;85.01;101432.13;10363191;28;20041;-74
2022/04/21 04:57:46;;;;;;;43.55;9.55;;;;;;;7.50;84.75;101429.63;10380318;28;20033;-73
2022/04/21 05:02:46;;;;;;;13.05;9.23;;;;;;;7.60;83.68;101427.66;10381218;28;20105;-73
2022/04/21 05:07:47;;;;;;;11.98;10.52;;;;;;;7.71;84.47;101442.66;10379726;28;20100;-73
2022/04/21 05:12:47;;;;;;;12.27;10.75;;;;;;;7.88;85.71;101438.97;10363518;28;20034;-73
2022/04/21 05:17:48;;;;;;;16.88;9.98;;;;;;;8.02;84.97;101435.63;10381185;28;20060;-73
2022/04/21 05:22:48;;;;;;;10.50;7.95;;;;;;;8.12;88.84;101427.38;10379945;28;20049;-72
2022/04/21 05:27:49;;;;;;;12.43;7.90;;;;;;;8.30;89.07;101432.59;10377836;28;20393;-73
2022/04/21 05:32:49;;;;;;;8.95;8.07;;;;;;;8.51;87.46;101432.94;10378620;28;20121;-73
2022/04/21 05:37:50;;;;;;;11.55;7.95;;;;;;;8.72;86.32;101440.50;10377483;28;20108;-73
2022/04/21 05:42:50;;;;;;;12.35;8.10;;;;;;;9.35;85.59;101436.06;10344987;28;20058;-73
2022/04/21 05:47:51;;;;;;;7.57;6.88;;;;;;;10.57;82.83;101437.06;10361188;28;20370;-73
2022/04/21 05:52:52;;;;;;;11.50;8.40;;;;;;;11.53;78.06;101424.41;10361292;28;20564;-73
2022/04/21 05:57:52;;;;;;;7.40;6.65;;;;;;;12.61;76.07;101433.38;10360560;28;20030;-74
2022/04/21 06:02:53;;;;;;;11.35;7.97;;;;;;;13.48;74.08;101426.56;10378000;28;20034;-74
2022/04/21 06:07:53;;;;;;;7.68;6.45;;;;;;;14.00;71.00;101424.16;10361493;28;20041;-73
2022/04/21 06:12:54;;;;;;;7.47;6.07;;;;;;;14.19;67.05;101424.19;10376558;28;20030;-74
2022/04/21 06:17:54;;;;;;;7.88;6.93;;;;;;;14.37;64.98;101428.19;10343902;28;20129;-74
2022/04/21 06:22:55;;;;;;;8.73;6.88;;;;;;;14.74;65.53;101431.31;10359716;28;20080;-74
2022/04/21 06:27:55;;;;;;;6.53;5.90;;;;;;;15.13;62.13;101421.41;10377468;28;20038;-74
2022/04/21 06:32:55;;;;;;;10.50;6.90;;;;;;;15.42;59.37;101428.22;10376417;28;20033;-74
2022/04/21 06:37:56;;;;;;;5.82;5.22;;;;;;;15.42;57.74;101428.22;10376702;28;20425;-74
2022/04/21 06:42:57;;;;;;;10.05;5.00;;;;;;;15.69;58.33;101418.84;10343819;28;20121;-74
2022/04/21 06:48:09;;;;;;;14.20;5.75;;;;;;;15.79;55.29;101413.75;10359869;28;20041;-74
2022/04/21 06:53:10;;;;;;;8.23;6.68;;;;;;;16.42;55.69;101401.91;10375060;28;20061;-73
2022/04/21 06:58:10;;;;;;;5.97;5.35;;;;;;;16.69;53.87;101413.44;10358315;28;20033;-74
2022/04/21 07:03:11;;;;;;;5.75;4.57;;;;;;;16.82;51.43;101414.41;10377048;28;20045;-74
2022/04/21 07:08:13;;;;;;;6.35;5.68;;;;;;;17.11;50.60;101412.81;10377269;28;20037;-74
2022/04/21 07:13:13;;;;;;;6.85;5.20;;;;;;;17.10;49.52;101408.41;10377351;28;20037;-74
2022/04/21 07:18:13;;;;;;;5.18;4.68;;;;;;;17.46;48.98;101403.97;10375384;28;20034;-74
2022/04/21 07:23:14;;;;;;;5.07;4.22;;;;;;;17.69;48.10;101412.28;10375707;28;20034;-75
2022/04/21 07:28:14;;;;;;;5.60;4.38;;;;;;;17.69;47.75;101411.44;10375287;28;20478;-74
2022/04/21 07:33:17;;;;;;;6.07;4.93;;;;;;;17.86;47.06;101415.22;10374722;28;20080;-74
2022/04/21 07:38:17;;;;;;;9.45;4.93;;;;;;;17.79;45.84;101411.75;10376165;28;20373;-74
2022/04/21 07:43:17;;;;;;;5.30;4.07;;;;;;;18.18;47.21;101413.03;10375833;28;20041;-74
2022/04/21 07:48:18;;;;;;;6.18;5.57;;;;;;;18.27;45.43;101408.06;10360483;28;20528;-74
2022/04/21 07:53:19;;;;;;;4.72;4.25;;;;;;;18.80;45.13;101405.25;10376067;28;20425;-74
2022/04/21 07:58:21;;;;;;;5.97;3.83;;;;;;;18.94;45.74;101402.25;10375264;28;20092;-74
2022/04/21 08:03:22;;;;;;;5.60;5.10;;;;;;;19.59;44.06;101390.97;10376144;28;20034;-74
2022/04/21 08:08:23;;;;;;;7.70;4.13;;;;;;;19.92;41.20;101401.22;10342141;28;20462;-74
2022/04/21 08:13:25;;;;;;;7.05;4.28;;;;;;;19.78;41.78;101402.59;10379663;28;20030;-74
2022/04/21 08:18:25;;;;;;;7.25;4.28;;;;;;;19.49;42.76;101399.81;10345732;28;20033;-75
2022/04/21 08:23:26;;;;;;;4.20;3.72;;;;;;;20.23;42.30;101396.25;10386361;28;20041;-74
2022/04/21 08:33:45;;;;;;;5.45;4.97;;;;;;;19.88;41.20;101401.97;10386785;28;20105;-74
2022/04/21 08:38:47;;;;;;;9.15;4.40;;;;;;;20.34;42.52;101408.25;10381288;28;20038;-75
2022/04/21 08:43:47;;;;;;;5.93;4.80;;;;;;;20.80;41.63;101404.28;10381652;28;20034;-75
2022/04/21 08:48:50;;;;;;;3.92;3.47;;;;;;;21.31;38.15;101410.50;10380409;28;20366;-75
2022/04/21 08:53:50;;;;;;;5.15;4.32;;;;;;;20.32;38.45;101410.41;10363738;28;20026;-75
2022/04/21 08:58:51;;;;;;;3.47;2.97;;;;;;;20.03;39.35;101398.63;10365370;28;20041;-75
2022/04/21 09:03:51;;;;;;;4.72;3.25;;;;;;;20.73;38.20;101398.13;10381419;28;20034;-75
2022/04/21 09:09:17;;;;;;;3.88;3.58;;;;;;;21.06;36.33;101407.41;10380071;28;20041;-75
2022/04/21 09:14:19;;;;;;;6.20;3.60;;;;;;;20.15;38.86;101396.66;10379334;28;20030;-74
2022/04/21 09:19:20;;;;;;;8.82;3.60;;;;;;;20.94;38.54;101388.25;10379980;28;20370;-74
2022/04/21 09:24:27;;;;;;;5.05;3.63;;;;;;;21.45;37.03;101399.94;10379538;28;20038;-75
2022/04/21 09:29:30;;;;;;;3.55;3.25;;;;;;;20.04;39.71;101398.41;10378612;28;20105;-75
2022/04/21 09:34:31;;;;;;;4.65;3.65;;;;;;;19.86;40.49;101393.13;10377782;28;20050;-75
2022/04/21 09:39:31;;;;;;;3.97;3.67;;;;;;;20.48;40.31;101383.97;10378270;28;20034;-75
2022/04/21 09:49:52;;;;;;;2.80;2.60;;;;;;;20.60;37.69;101369.06;10378642;28;20481;-75
2022/04/21 09:54:52;;;;;;;4.13;3.30;;;;;;;20.93;37.45;101380.22;10378336;28;20061;-74
2022/04/21 09:59:53;;;;;;;3.95;3.55;;;;;;;20.63;36.87;101376.81;10378307;28;20038;-75
2022/04/21 10:04:53;;;;;;;4.50;3.35;;;;;;;20.77;36.53;101362.66;10360007;28;20030;-73
2022/04/21 10:09:54;;;;;;;9.27;3.97;;;;;;;20.96;35.53;101363.19;10360458;28;20029;-75
2022/04/21 10:14:55;;;;;;;3.22;3.03;;;;;;;21.13;35.29;101358.47;10376327;28;20044;-74
2022/04/21 10:19:55;;;;;;;4.57;2.97;;;;;;;21.05;35.50;101343.22;10361223;28;20034;-74
2022/04/21 10:24:56;;;;;;;3.25;3.05;;;;;;;21.26;34.89;101352.56;10360267;28;20032;-75
2022/04/21 10:29:57;;;;;;;3.15;2.95;;;;;;;21.37;33.65;101348.03;10376941;28;20034;-74
2022/04/21 10:34:59;;;;;;;3.03;2.78;;;;;;;21.45;33.27;101342.06;10376066;28;20046;-75
2022/04/21 10:40:09;;;;;;;10.70;3.15;;;;;;;21.21;33.80;101329.63;10343862;28;20045;-75
2022/04/21 10:45:13;;;;;;;3.08;2.28;;;;;;;21.35;31.77;101323.50;10358279;28;20038;-75
2022/04/21 10:50:15;;;;;;;3.15;2.83;;;;;;;21.16;32.13;101324.09;10375736;28;20037;-74
2022/04/21 11:00:35;;;;;;;2.58;2.38;;;;;;;21.16;31.81;101305.63;10375901;28;20042;-74
2022/04/21 11:05:36;;;;;;;6.05;3.47;;;;;;;22.01;28.87;101312.25;10358712;28;20034;-75
2022/04/21 11:10:37;;;;;;;5.50;2.78;;;;;;;21.34;29.34;101315.47;10358876;28;20038;-74
2022/04/21 11:15:46;;;;;;;3.42;2.47;;;;;;;21.11;28.66;101300.06;10376162;28;20026;-74
2022/04/21 11:20:51;;;;;;;1.77;1.70;;;;;;;20.61;31.24;101298.34;10375252;28;20030;-74
2022/04/21 11:25:52;;;;;;;3.42;2.63;;;;;;;20.87;30.56;101294.84;10358833;28;20034;-74
2022/04/21 11:31:00;;;;;;;2.70;2.45;;;;;;;20.78;29.91;101299.13;10373784;28;20085;-74
2022/04/21 11:36:08;;;;;;;2.17;2.08;;;;;;;20.84;30.41;101289.03;10375061;28;20111;-74
2022/04/21 11:41:09;;;;;;;3.83;2.38;;;;;;;21.05;30.85;101268.88;10374528;28;20034;-74
2022/04/21 11:46:12;;;;;;;1.88;1.77;;;;;;;21.74;28.40;101283.91;10373081;28;20092;-74
2022/04/21 11:51:24;;;;;;;2.75;1.70;;;;;;;21.83;26.49;101257.53;10341810;28;20080;-74
2022/04/21 11:56:27;;;;;;;4.47;1.52;;;;;;;21.83;26.76;101269.38;10374973;28;20045;-74
2022/04/21 12:06:48;;;;;;;1.80;1.70;;;;;;;21.32;27.80;101259.81;10382003;28;20128;-74
2022/04/21 12:11:51;;;;;;;4.80;1.95;;;;;;;21.59;27.11;101248.78;10381632;28;20080;-74
2022/04/21 12:16:55;;;;;;;1.90;1.80;;;;;;;21.09;27.31;101252.66;10381500;28;20462;-75
2022/04/21 12:22:07;;;;;;;3.58;1.92;;;;;;;21.21;26.48;101239.56;10382239;28;20041;-74
2022/04/21 12:27:16;;;;;;;2.38;2.17;;;;;;;21.11;27.22;101240.31;10364694;28;20474;-75
2022/04/21 12:32:17;;;;;;;4.43;1.75;;;;;;;20.99;26.71;101236.88;10381541;28;20363;-74
2022/04/21 12:37:28;;;;;;;4.22;2.78;;;;;;;21.16;28.50;101219.44;10382642;28;20045;-74
2022/04/21 12:42:29;;;;;;;1.85;1.75;;;;;;;21.51;26.31;101222.53;10383691;28;20473;-74
2022/04/21 12:47:29;;;;;;;2.25;1.80;;;;;;;21.18;27.88;101220.00;10381228;28;20042;-74
2022/04/21 12:52:40;;;;;;;2.08;1.98;;;;;;;21.20;28.23;101215.88;10383470;28;20026;-74
2022/04/21 12:57:40;;;;;;;3.78;2.60;;;;;;;20.95;29.05;101208.19;10381983;28;20541;-74
2022/04/21 13:02:41;;;;;;;3.05;2.83;;;;;;;21.13;31.21;101196.81;10380776;28;20030;-74
2022/04/21 13:07:41;;;;;;;3.13;2.22;;;;;;;20.82;30.74;101205.84;10381008;28;20034;-74
2022/04/21 13:12:42;;;;;;;2.33;2.22;;;;;;;20.89;31.15;101199.03;10378776;28;20108;-74
2022/04/21 13:17:42;;;;;;;3.55;3.13;;;;;;;20.66;30.28;101189.16;10380895;28;20074;-74
2022/04/21 13:22:42;;;;;;;3.35;3.05;;;;;;;20.49;31.15;101182.91;10363826;28;20041;-74
2022/04/21 13:27:43;;;;;;;2.42;2.20;;;;;;;20.40;31.28;101168.75;10380309;28;20478;-74
2022/04/21 13:38:02;;;;;;;2.25;1.98;;;;;;;20.63;31.68;101155.84;10381258;28;20065;-74
2022/04/21 13:43:02;;;;;;;2.70;2.50;;;;;;;20.94;32.00;101168.00;10362877;28;20038;-74
2022/04/21 13:48:04;;;;;;;3.05;2.78;;;;;;;21.10;30.44;101156.03;10362890;28;20037;-74
2022/04/21 13:53:06;;;;;;;3.53;3.22;;;;;;;20.89;31.48;101156.94;10363383;28;20029;-75
2022/04/21 13:58:07;;;;;;;8.98;3.75;;;;;;;20.99;30.36;101147.94;10361783;28;20034;-75
2022/04/21 14:03:08;;;;;;;4.20;3.80;;;;;;;20.48;30.93;101139.13;10379075;28;20034;-74
2022/04/21 14:08:09;;;;;;;7.68;4.75;;;;;;;20.43;31.84;101148.16;10378449;28;20208;-74
2022/04/21 14:13:09;;;;;;;4.60;3.83;;;;;;;20.35;32.34;101143.09;10378050;28;20030;-74
2022/04/21 14:18:09;;;;;;;6.00;4.55;;;;;;;20.76;31.03;101127.06;10378958;28;20046;-75
2022/04/21 14:23:10;;;;;;;3.65;3.35;;;;;;;20.43;30.95;101124.22;10376852;28;20385;-75
2022/04/21 14:28:10;;;;;;;3.47;3.22;;;;;;;20.26;31.46;101123.50;10378765;28;20042;-74
2022/04/21 14:33:10;;;;;;;5.00;4.13;;;;;;;19.91;31.71;101112.84;10376450;28;20053;-74
2022/04/21 14:48:49;;;;;;;3.83;3.20;;;;;;;19.73;32.45;101097.50;10377273;28;20041;-74
2022/04/21 14:53:50;;;;;;;2.42;1.95;;;;;;;19.77;32.13;101111.56;10359474;28;20034;-75
2022/04/21 14:58:50;;;;;;;2.05;1.95;;;;;;;19.33;32.89;101094.94;10359746;28;20037;-75
2022/04/21 15:03:51;;;;;;;3.08;2.75;;;;;;;19.34;32.97;101102.13;10375948;28;20054;-75
2022/04/21 15:08:51;;;;;;;3.20;2.67;;;;;;;19.02;33.83;101084.31;10376588;28;20390;-74
2022/04/21 15:13:52;;;;;;;3.08;2.78;;;;;;;18.94;35.37;101089.38;10373449;28;20040;-75
2022/04/21 15:18:53;;;;;;;2.40;2.20;;;;;;;18.52;32.86;101079.56;10375232;28;20056;-74
2022/04/21 15:23:53;;;;;;;4.45;2.65;;;;;;;18.20;35.63;101079.22;10359120;28;20034;-74
2022/04/21 15:28:53;;;;;;;2.75;2.55;;;;;;;18.22;36.65;101063.38;10373855;28;20481;-74
2022/04/21 15:33:54;;;;;;;2.55;2.35;;;;;;;18.08;36.94;101062.81;10372659;28;20437;-74
2022/04/21 15:38:54;;;;;;;3.97;2.33;;;;;;;18.12;37.42;101049.44;10376006;28;20046;-74
2022/04/21 15:43:56;;;;;;;3.53;2.95;;;;;;;17.86;38.03;101057.16;10373846;28;20422;-74
2022/04/21 15:48:56;;;;;;;2.72;2.53;;;;;;;17.53;38.41;101057.78;10375968;28;20092;-73
2022/04/21 15:59:15;;;;;;;6.70;3.58;;;;;;;17.33;39.17;101060.91;10359915;28;20030;-74
2022/04/21 16:04:17;;;;;;;4.32;3.25;;;;;;;17.27;39.12;101047.34;10355988;28;20034;-74
2022/04/21 16:09:18;;;;;;;7.55;3.15;;;;;;;17.27;39.35;101050.91;10373354;28;20172;-74
2022/04/21 16:14:18;;;;;;;3.65;3.30;;;;;;;17.29;40.70;101061.59;10372857;28;20112;-74
2022/04/21 16:19:18;;;;;;;3.30;3.00;;;;;;;17.34;40.79;101065.31;10375970;28;20041;-75
2022/04/21 16:24:19;;;;;;;12.55;3.90;;;;;;;17.27;40.94;101059.13;10357734;28;20081;-74
2022/04/21 16:29:19;;;;;;;5.47;4.43;;;;;;;17.37;41.51;101053.06;10340941;28;20117;-75
2022/04/21 16:34:20;;;;;;;5.32;3.50;;;;;;;17.36;42.46;101052.22;10374919;28;20128;-74
2022/04/21 16:39:20;;;;;;;3.67;3.38;;;;;;;17.32;42.38;101055.66;10356471;28;20473;-74
2022/04/21 16:44:21;;;;;;;7.55;3.97;;;;;;;17.29;42.31;101048.75;10374955;28;20088;-74
2022/04/21 16:49:21;;;;;;;9.82;3.67;;;;;;;17.23;43.27;101051.59;10379977;28;20089;-75
2022/04/21 16:54:22;;;;;;;11.80;4.28;;;;;;;17.21;44.56;101046.38;10382210;28;20038;-74
2022/04/21 16:59:22;;;;;;;3.90;3.15;;;;;;;17.31;43.87;101052.09;10364039;28;20042;-75
2022/04/21 17:04:24;;;;;;;3.92;3.55;;;;;;;17.30;46.06;101055.91;10380261;28;20454;-75
2022/04/21 17:09:25;;;;;;;4.93;3.92;;;;;;;17.10;46.71;101036.25;10365023;28;20100;-74
2022/04/21 17:14:25;;;;;;;13.30;3.72;;;;;;;16.94;47.27;101051.47;10363586;28;20100;-75
2022/04/21 17:19:26;;;;;;;6.50;4.47;;;;;;;16.68;48.56;101044.50;10380803;28;20030;-75
2022/04/21 17:24:27;;;;;;;21.40;5.18;;;;;;;16.64;48.43;101046.03;10378893;28;20030;-74
2022/04/21 17:29:27;;;;;;;4.13;3.58;;;;;;;16.43;50.34;101045.53;10380490;28;20037;-74
2022/04/21 17:34:27;;;;;;;12.25;4.10;;;;;;;16.22;51.49;101056.97;10380005;28;20068;-74
2022/04/21 17:39:28;;;;;;;11.15;4.00;;;;;;;16.00;49.91;101054.72;10379199;28;20038;-75
2022/04/21 17:44:29;;;;;;;4.80;4.03;;;;;;;15.93;50.02;101042.22;10379062;28;20030;-74
2022/04/21 17:49:29;;;;;;;5.10;3.53;;;;;;;15.90;49.90;101070.00;10379491;28;20042;-74
2022/04/21 17:54:29;;;;;;;4.75;3.72;;;;;;;15.69;51.40;101066.63;10378359;28;20038;-74
2022/04/21 17:59:30;;;;;;;6.45;5.57;;;;;;;15.60;51.28;101059.78;10378464;28;20034;-74
2022/04/21 18:04:30;;;;;;;8.85;4.70;;;;;;;15.50;52.53;101065.75;10378131;28;20042;-74
2022/04/21 18:09:31;;;;;;;4.15;2.63;;;;;;;15.46;52.55;101064.56;10378162;28;20038;-74
2022/04/21 18:14:32;;;;;;;3.00;2.80;;;;;;;15.33;54.07;101070.16;10377473;28;20124;-75
2022/04/21 18:19:33;;;;;;;4.25;3.38;;;;;;;15.20;55.27;101076.56;10379096;28;20458;-74
2022/04/21 18:24:34;;;;;;;14.30;3.95;;;;;;;15.09;56.27;101075.41;10378543;28;20030;-74
2022/04/21 18:29:35;;;;;;;7.65;3.72;;;;;;;15.03;56.15;101079.03;10377621;28;20129;-74
2022/04/21 18:34:36;;;;;;;5.25;3.00;;;;;;;14.92;56.57;101087.91;10359101;28;20418;-74
2022/04/21 18:39:37;;;;;;;8.43;4.28;;;;;;;14.88;56.72;101073.88;10376367;28;20038;-75
2022/04/21 18:44:38;;;;;;;6.82;3.53;;;;;;;14.81;56.67;101073.13;10376949;28;20045;-75
2022/04/21 18:49:38;;;;;;;5.68;4.43;;;;;;;14.75;56.93;101081.34;10360895;28;20038;-75
2022/04/21 18:54:38;;;;;;;9.43;3.72;;;;;;;14.69;56.73;101090.41;10378629;28;20488;-75
2022/04/21 18:59:39;;;;;;;6.78;5.13;;;;;;;14.61;57.45;101094.22;10359201;28;20048;-74
2022/04/21 19:04:39;;;;;;;6.05;4.13;;;;;;;14.55;57.23;101095.94;10376338;28;20044;-74
2022/04/21 19:14:59;;;;;;;4.85;3.78;;;;;;;14.47;58.40;101087.97;10376502;28;20038;-75
2022/04/21 19:19:59;;;;;;;7.38;4.28;;;;;;;14.37;58.55;101088.47;10377415;28;20433;-75
2022/04/21 19:24:59;;;;;;;3.85;3.47;;;;;;;14.37;58.28;101095.81;10380113;28;20038;-73
2022/04/21 19:30:00;;;;;;;3.72;3.28;;;;;;;14.31;58.94;101085.78;10374972;28;20133;-74
2022/04/21 19:35:00;;;;;;;3.70;3.40;;;;;;;14.30;59.11;101092.28;10357788;28;20117;-74
2022/04/21 19:40:01;;;;;;;3.70;3.30;;;;;;;14.22;59.47;101087.91;10376431;28;20026;-74
2022/04/21 19:45:01;;;;;;;5.35;3.92;;;;;;;14.18;59.34;101082.06;10374384;28;20038;-73
2022/04/21 19:50:02;;;;;;;3.30;3.00;;;;;;;14.14;59.63;101089.00;10375073;28;20458;-74
2022/04/21 19:55:04;;;;;;;6.00;4.32;;;;;;;14.11;60.09;101073.09;10359182;28;20045;-75
2022/04/21 20:00:05;;;;;;;6.07;3.38;;;;;;;14.20;58.12;101081.84;10379049;28;20038;-75
2022/04/21 20:05:06;;;;;;;3.78;3.47;;;;;;;14.09;62.46;101083.34;10359118;28;20045;-75
2022/04/21 20:10:07;;;;;;;8.70;4.60;;;;;;;13.96;64.68;101086.97;10375473;28;20082;-75
2022/04/21 20:15:09;;;;;;;6.57;5.90;;;;;;;13.83;66.48;101078.84;10376273;28;20163;-75
2022/04/21 20:30:48;;;;;;;8.75;7.65;;;;;;;13.22;78.04;101076.44;10382111;28;20038;-74
2022/04/21 20:35:48;;;;;;;9.45;7.45;;;;;;;13.12;77.71;101073.31;10382925;28;20389;-75
2022/04/21 20:40:48;;;;;;;12.40;8.07;;;;;;;13.07;79.28;101076.66;10383937;28;20049;-74
2022/04/21 20:45:49;;;;;;;13.60;8.73;;;;;;;13.07;79.07;101064.94;10383056;28;20373;-74
2022/04/21 20:50:50;;;;;;;12.52;9.90;;;;;;;13.08;79.70;101066.59;10381186;28;20064;-75
2022/04/21 20:55:50;;;;;;;13.15;8.88;;;;;;;13.02;81.42;101063.69;10363690;28;20034;-75
2022/04/21 21:00:51;;;;;;;16.50;10.23;;;;;;;13.04;81.02;101064.31;10380691;28;20037;-75
2022/04/21 21:05:51;;;;;;;14.50;9.45;;;;;;;12.98;81.51;101067.03;10380635;28;20044;-74
2022/04/21 21:10:51;;;;;;;10.80;8.65;;;;;;;12.93;82.77;101059.53;10381517;28;20041;-75
2022/04/21 21:15:52;;;;;;;11.32;9.45;;;;;;;12.90;82.79;101056.38;10381581;28;20593;-75
2022/04/21 21:20:52;;;;;;;14.88;10.90;;;;;;;12.96;80.79;101058.28;10380124;28;20030;-74
2022/04/21 21:25:53;;;;;;;15.32;11.15;;;;;;;13.01;77.86;101055.75;10380479;28;20045;-73
2022/04/21 21:30:54;;;;;;;12.02;10.65;;;;;;;13.00;77.85;101054.91;10379234;28;20030;-73
2022/04/21 21:35:54;;;;;;;15.18;10.93;;;;;;;12.95;80.71;101057.41;10379904;28;20050;-74
2022/04/21 21:40:54;;;;;;;10.98;9.93;;;;;;;12.88;80.99;101051.13;10379416;28;20556;-74
2022/04/21 21:45:55;;;;;;;13.73;11.00;;;;;;;12.80;82.91;101045.94;10379579;28;20041;-74
2022/04/21 21:56:15;;;;;;;11.85;10.13;;;;;;;12.60;82.55;101043.19;10378977;28;20034;-74
2022/04/21 22:01:15;;;;;;;12.77;11.30;;;;;;;12.43;83.48;101050.06;10360922;28;20034;-73
2022/04/21 22:06:16;;;;;;;11.05;9.80;;;;;;;12.40;78.93;101043.16;10377821;28;20116;-74
2022/04/21 22:11:18;;;;;;;13.63;9.98;;;;;;;12.31;84.29;101045.22;10377009;28;20066;-74
2022/04/21 22:16:19;;;;;;;12.95;10.35;;;;;;;12.44;83.35;101044.41;10377859;28;20133;-73
2022/04/21 22:21:19;;;;;;;18.40;10.82;;;;;;;12.52;82.61;101033.34;10377938;28;20041;-74
2022/04/21 22:26:22;;;;;;;13.13;10.65;;;;;;;12.63;81.47;101033.78;10360145;28;20025;-74
2022/04/21 22:31:23;;;;;;;10.88;9.63;;;;;;;12.68;81.88;101037.56;10377885;28;20029;-73
2022/04/21 22:36:23;;;;;;;14.25;10.27;;;;;;;12.70;82.45;101029.19;10359621;28;20085;-74
2022/04/21 22:41:23;;;;;;;11.13;8.07;;;;;;;12.70;81.14;101024.59;10375091;28;20034;-74
2022/04/21 22:46:24;;;;;;;13.07;10.27;;;;;;;12.66;81.71;101026.03;10361078;28;20065;-73
2022/04/21 22:51:24;;;;;;;13.93;9.13;;;;;;;12.60;82.35;101021.44;10359404;28;20030;-73
2022/04/21 22:56:25;;;;;;;18.30;9.30;;;;;;;12.59;82.43;101014.34;10359373;28;20026;-74
2022/04/21 23:01:25;;;;;;;12.05;9.70;;;;;;;12.52;81.91;101006.19;10378142;28;20442;-73
2022/04/21 23:06:26;;;;;;;14.73;9.93;;;;;;;12.54;81.44;101017.69;10359329;28;20040;-73
2022/04/21 23:16:49;;;;;;;9.48;8.50;;;;;;;12.36;81.73;101003.06;10375269;28;20037;-74
2022/04/21 23:21:50;;;;;;;8.30;7.43;;;;;;;12.31;81.93;100995.50;10377394;28;20468;-74
2022/04/21 23:26:50;;;;;;;11.02;8.65;;;;;;;12.17;81.59;101004.69;10357500;28;20121;-74
2022/04/21 23:31:50;;;;;;;8.27;7.07;;;;;;;11.94;81.38;100994.19;10375417;28;20029;-73
2022/04/21 23:36:51;;;;;;;13.05;8.52;;;;;;;11.84;81.14;101003.56;10375335;28;20136;-73
2022/04/21 23:41:51;;;;;;;9.00;6.03;;;;;;;11.72;80.94;101001.59;10358320;28;20172;-73
2022/04/21 23:46:52;;;;;;;9.43;8.05;;;;;;;11.67;80.85;100998.63;10375077;28;20034;-73
2022/04/21 23:51:52;;;;;;;12.18;7.18;;;;;;;11.54;81.51;100994.00;10374354;28;20033;-73
2022/04/21 23:56:53;;;;;;;9.70;6.95;;;;;;;11.47;81.37;100983.13;10370059;28;20092;-73
